Flight Track Log - Related Links

Times and Time Zones

All times are in EDT time to prevent confusion due to time zone crossing. See the ASQ6115 flight status page for this flight to view local times or setup timezone preferences in your user account.

Time Position Orientation Groundspeed Altitude Reporting Facility
EDT Latitude Longitude Course Direction KTS MPH feet Rate Location/Type
Mon 02:18:08 PM 29.9594 -95.3414 190° South 161 185 800  Level Houston Center
Mon 02:19:03 PM 29.9283 -95.2994 131° Southeast 212 244 2,200 1,655 Climbing Houston Center
Mon 02:20:04 PM 29.8811 -95.2425 134° Southeast 267 307 4,000 2,017 Climbing Houston Center
Mon 02:20:59 PM 29.8358 -95.1853 132° Southeast 268 308 6,100 1,886 Climbing Houston Center
Mon 02:21:00 PM 29.5949 -95.4104 191° South  Level FlightAware Approximate
Mon 02:21:14 PM 29.8322 -95.1811 135° Southeast 262 302 6,200  Level Houston Center
Mon 02:22:00 PM 29.4979 -95.4304 190° South  Level FlightAware Approximate
Mon 02:22:06 PM 29.7717 -95.1281 143° Southeast 278 320 8,400  Level Houston Center
Mon 02:23:00 PM 29.4008 -95.4498 190° South  Level FlightAware Approximate
Mon 02:23:18 PM 29.6797 -95.1144 173° South 277 319 10,600  Level Houston Center
Mon 02:24:20 PM 29.5881 -95.1069 176° South 317 365 11,300 871 Climbing Houston Center
Mon 02:25:22 PM 29.5017 -95.1606 208° Southwest 339 390 12,400 1,104 Climbing Houston Center
Mon 02:26:25 PM 29.4175 -95.2122 208° Southwest 341 392 13,600 1,152 Climbing Houston Center
Mon 02:27:27 PM 29.3314 -95.2647 208° Southwest 347 399 14,800 1,113 Climbing Houston Center
Mon 02:28:29 PM 29.2569 -95.3364 220° Southwest 348 400 15,900 1,113 Climbing Houston Center
Mon 02:29:31 PM 29.1825 -95.4081 220° Southwest 349 402 17,100 1,113 Climbing Houston Center
Mon 02:30:33 PM 29.1086 -95.4808 221° Southwest 351 404 18,200 1,210 Climbing Houston Center
Mon 02:31:35 PM 29.0186 -95.5681 220° Southwest 353 406 19,600 1,210 Climbing Houston Center
Mon 02:32:37 PM 28.9428 -95.6419 220° Southwest 358 412 20,700 1,104 Climbing Houston Center
Mon 02:33:40 PM 28.8667 -95.7164 221° Southwest 359 413 21,900 624 Climbing Houston Center
Mon 02:34:42 PM 28.7869 -95.7931 220° Southwest 374 430 22,000 48 Climbing Houston Center
Mon 02:35:44 PM 28.7028 -95.8753 221° Southwest 391 450 22,000  Level Houston Center
Mon 02:36:46 PM 28.5981 -95.9761 220° Southwest 416 479 22,000  Level Houston Center
Mon 02:37:48 PM 28.5056 -96.0647 220° Southwest 429 494 22,000  Level Houston Center
Mon 02:38:50 PM 28.4128 -96.1531 220° Southwest 433 498 22,000  Level Houston Center
Mon 02:39:52 PM 28.3203 -96.2433 221° Southwest 435 501 22,000  Level Houston Center
Mon 02:40:55 PM 28.2269 -96.3325 220° Southwest 436 502 22,000  Level Houston Center
Mon 02:41:57 PM 28.1333 -96.4197 219° Southwest 435 501 22,000  Level Houston Center
Mon 02:42:59 PM 28.0222 -96.5269 220° Southwest 436 502 22,000  Level Houston Center
Mon 02:44:01 PM 27.9286 -96.6153 220° Southwest 436 502 22,000  Level Houston Center
Mon 02:45:03 PM 27.8361 -96.7014 219° Southwest 433 498 22,000  Level Houston Center
Mon 02:46:05 PM 27.7425 -96.7894 220° Southwest 435 501 22,000  Level Houston Center
Mon 02:47:07 PM 27.6486 -96.8789 220° Southwest 438 504 22,000  Level Houston Center
Mon 02:48:10 PM 27.5544 -96.9664 219° Southwest 439 505 22,000  Level Houston Center
Mon 02:49:12 PM 27.4408 -97.0714 219° Southwest 439 505 22,000  Level Houston Center
Mon 02:50:14 PM 27.3464 -97.1597 220° Southwest 442 509 22,000  Level Houston Center
Mon 02:51:16 PM 27.2531 -97.2475 220° Southwest 440 506 22,000 -339 Level Houston Center
Mon 02:52:18 PM 27.1525 -97.3303 216° Southwest 449 517 21,300 -774 Descending Houston Center
Mon 02:53:20 PM 27.0322 -97.3361 182° South 444 511 20,400 -736 Descending Houston Center
Mon 02:54:04 PM 26.9378 -97.3650 195° South 415 478 20,000 -387 Descending Houston Center
Mon 02:54:22 PM 26.9117 -97.3864 216° Southwest 420 483 20,000 -1,600 Level Houston Center
Mon 02:55:04 PM 26.8511 -97.4567 226° Southwest 407 468 18,400 -2,381 Descending Houston Center
Mon 02:55:25 PM 26.8272 -97.4842 226° Southwest 407 468 17,500 -2,747 Descending Houston Center
Mon 02:56:27 PM 26.7514 -97.5728 226° Southwest 411 473 14,600 -2,495 Descending Houston Center
Mon 02:57:06 PM 26.6997 -97.6319 226° Southwest 379 436 13,300 -1,935 Descending Houston Center
Mon 02:57:29 PM 26.6756 -97.6611 227° Southwest 370 426 12,600 -2,149 Descending Houston Center
Mon 02:58:13 PM 26.6306 -97.7114 225° Southwest 328 377 10,900 -2,032 Descending Houston Center
Mon 02:58:31 PM 26.6125 -97.7356 230° Southwest 323 372 10,500 -1,377 Descending Houston Center
Mon 02:59:14 PM 26.5672 -97.7878 226° Southwest 302 348 9,500 -1,548 Descending Houston Center
Mon 02:59:33 PM 26.5517 -97.8056 226° Southwest 297 342 8,900 -2,164 Descending Houston Center
Mon 03:00:15 PM 26.5128 -97.8489 225° Southwest 274 315 7,300 -2,226 Descending Houston Center
Mon 03:00:35 PM 26.4978 -97.8675 228° Southwest 282 325 6,600 -2,182 Descending Houston Center
Mon 03:01:10 PM 26.4661 -97.9042 226° Southwest 270 311 5,300 -2,226 Descending Houston Center
Mon 03:01:37 PM 26.4486 -97.9339 237° Southwest 265 305 4,300 -2,100 Descending Houston Center
Mon 03:02:10 PM 26.4289 -97.9697 238° Southwest 252 290 3,200 -2,000 Descending Houston Center
Mon 03:02:40 PM 26.4136 -98.0008 241° Southwest 251 289 2,200 -1,180 Descending Houston Center
Mon 03:03:11 PM 26.3939 -98.0375 239° Southwest 253 291 2,000 -194 Descending Houston Center
Mon 03:03:42 PM 26.3753 -98.0747 241° Southwest 254 292 2,000  Level Houston Center
Mon 03:04:12 PM 26.3589 -98.1050 239° Southwest 252 290 2,000  Level Houston Center
Mon 03:04:44 PM 26.3411 -98.1417 242° Southwest 251 289 2,000  Level Houston Center
Mon 03:05:13 PM 26.3225 -98.1775 240° Southwest 252 290 2,000  Level Houston Center

Login

Don't have an account? Register now (free) for customized features, flight alerts, and more!